Terminal Aerodrome Forecast
Issued by NWS

Home | Current Version | Previous Version | Text Only | Print | Product List | Glossary On
Versions: 1 2 3 4 5 6 7 8 9 10 11 12 13 14 15 16 17 18 19 20 21 22 23 24 25 26
000
FTUS45 KPIH 171734
TAFSUN
TAF
KSUN 171734Z 1718/1824 VRB03KT P6SM SCT001 SCT060
     FM172100 14006KT 4SM BR SCT004 BKN015
     FM180200 31006KT P6SM BKN040
     FM180700 31006KT P6SM SCT030 BKN150
     FM181900 14008KT P6SM SCT010 OVC100=

USA.gov is the U.S. government's official web portal to all federal, state and local government web resources and services.